createdAt,value
2023-05-20T00:00:27.113Z,100403.06
2023-05-20T00:02:54.527Z,100396.19
2023-05-20T00:05:21.542Z,100393.66
2023-05-20T00:07:48.741Z,100392.00
2023-05-20T00:10:16.001Z,100392.06
2023-05-20T00:12:43.110Z,100389.63
2023-05-20T00:15:12.368Z,100392.44
2023-05-20T00:17:39.805Z,100388.22
2023-05-20T00:20:08.334Z,100391.13
2023-05-20T00:22:35.692Z,100394.00
2023-05-20T00:25:03.042Z,100395.06
2023-05-20T00:27:30.286Z,100398.75
2023-05-20T00:29:57.970Z,100395.47
2023-05-20T00:32:25.941Z,100393.88
2023-05-20T00:34:59.793Z,100393.16
2023-05-20T00:37:29.583Z,100397.03
2023-05-20T00:39:58.379Z,100397.16
2023-05-20T00:42:27.317Z,100392.88
2023-05-20T00:44:56.017Z,100393.94
2023-05-20T00:47:33.050Z,100389.72
2023-05-20T00:50:01.422Z,100397.97
2023-05-20T00:52:33.001Z,100390.13
2023-05-20T00:55:00.635Z,100397.31
2023-05-20T00:57:28.192Z,100399.31
2023-05-20T00:59:56.065Z,100398.47
2023-05-20T01:02:25.625Z,100402.09
2023-05-20T01:04:55.467Z,100396.84
2023-05-20T01:07:23.002Z,100399.63
2023-05-20T01:09:52.907Z,100391.78
2023-05-20T01:12:30.149Z,100392.69
2023-05-20T01:15:16.110Z,100394.44
2023-05-20T01:17:58.465Z,100380.47
2023-05-20T01:20:26.725Z,100388.47
2023-05-20T01:22:57.134Z,100386.75
2023-05-20T01:25:25.388Z,100394.09
2023-05-20T01:27:54.585Z,100388.78
2023-05-20T01:30:28.470Z,100386.25
2023-05-20T01:33:00.343Z,100388.09
2023-05-20T01:35:33.172Z,100387.44
2023-05-20T01:38:01.110Z,100391.19
2023-05-20T01:40:29.429Z,100396.78
2023-05-20T01:42:58.655Z,100393.47
2023-05-20T01:45:26.858Z,100396.38
2023-05-20T01:47:54.889Z,100389.38
2023-05-20T01:50:22.576Z,100399.38
2023-05-20T01:52:50.329Z,100400.28
2023-05-20T01:55:17.695Z,100403.06
2023-05-20T01:57:44.909Z,100398.84
2023-05-20T02:00:12.845Z,100401.56
2023-05-20T02:02:45.159Z,100399.03
2023-05-20T02:05:13.590Z,100411.72
2023-05-20T02:07:43.570Z,100409.13
2023-05-20T02:10:11.768Z,100404.66
2023-05-20T02:12:39.117Z,100410.88
2023-05-20T02:15:07.675Z,100406.53
2023-05-20T02:17:36.266Z,100411.00
2023-05-20T02:20:06.591Z,100412.75
2023-05-20T02:22:35.151Z,100414.44
2023-05-20T02:25:04.071Z,100407.25
2023-05-20T02:27:31.699Z,100406.22
2023-05-20T02:30:01.126Z,100406.00
2023-05-20T02:32:29.305Z,100407.34
2023-05-20T02:34:56.930Z,100409.34
2023-05-20T02:37:24.762Z,100411.31
2023-05-20T02:39:52.536Z,100403.41
2023-05-20T02:42:19.760Z,100410.31
2023-05-20T02:44:47.104Z,100411.84
2023-05-20T02:47:14.876Z,100415.06
2023-05-20T02:49:42.342Z,100417.09
2023-05-20T02:52:10.602Z,100418.44
2023-05-20T02:54:38.981Z,100416.00
2023-05-20T02:57:06.560Z,100424.09
2023-05-20T02:59:33.851Z,100416.97
2023-05-20T03:02:01.340Z,100421.16
2023-05-20T03:04:29.458Z,100412.88
2023-05-20T03:06:58.202Z,100416.81
2023-05-20T03:09:25.734Z,100410.72
2023-05-20T03:11:56.077Z,100416.94
2023-05-20T03:14:24.129Z,100409.56
2023-05-20T03:16:51.513Z,100415.59
2023-05-20T03:19:19.741Z,100413.34
2023-05-20T03:21:47.040Z,100413.56
2023-05-20T03:24:15.010Z,100402.53
2023-05-20T03:26:46.734Z,100405.19
2023-05-20T03:29:14.122Z,100407.47
2023-05-20T03:31:41.986Z,100410.16
2023-05-20T03:34:09.055Z,100407.66
2023-05-20T03:36:36.760Z,100410.97
2023-05-20T03:39:05.005Z,100414.56
2023-05-20T03:41:34.342Z,100413.34
2023-05-20T03:44:05.366Z,100411.34
2023-05-20T03:46:34.765Z,100409.69
2023-05-20T03:49:03.284Z,100409.69
2023-05-20T03:51:31.846Z,100415.59
2023-05-20T03:54:05.640Z,100411.75
2023-05-20T03:56:33.165Z,100412.09
2023-05-20T03:59:01.020Z,100415.88
2023-05-20T04:01:28.653Z,100414.22
2023-05-20T04:03:56.618Z,100417.34
2023-05-20T04:06:24.498Z,100421.31
2023-05-20T04:08:53.184Z,100411.66
2023-05-20T04:11:21.913Z,100411.56
2023-05-20T04:13:49.204Z,100416.91
2023-05-20T04:16:17.494Z,100415.44
2023-05-20T04:18:46.525Z,100415.13
2023-05-20T04:21:14.404Z,100417.19
2023-05-20T04:23:41.925Z,100419.06
2023-05-20T04:26:09.431Z,100421.69
2023-05-20T04:28:38.193Z,100425.91
2023-05-20T04:31:06.426Z,100418.59
2023-05-20T04:33:39.113Z,100418.28
2023-05-20T04:36:10.434Z,100422.91
2023-05-20T04:38:38.265Z,100423.88
2023-05-20T04:41:07.394Z,100416.50
2023-05-20T04:43:35.029Z,100419.16
2023-05-20T04:46:06.457Z,100423.72
2023-05-20T04:48:35.350Z,100429.50
2023-05-20T04:51:03.693Z,100427.75
2023-05-20T04:53:34.243Z,100431.44
2023-05-20T04:56:02.127Z,100430.09
2023-05-20T04:58:32.077Z,100432.50
2023-05-20T05:01:00.067Z,100431.72
2023-05-20T05:03:29.102Z,100436.38
2023-05-20T05:06:01.530Z,100438.34
2023-05-20T05:08:29.137Z,100435.69
2023-05-20T05:10:56.418Z,100429.00
2023-05-20T05:13:23.852Z,100428.28
2023-05-20T05:16:01.958Z,100434.84
2023-05-20T05:18:31.292Z,100440.13
2023-05-20T05:21:06.779Z,100434.28
2023-05-20T05:23:36.307Z,100445.25
2023-05-20T05:26:03.733Z,100437.47
2023-05-20T05:28:31.403Z,100446.41
2023-05-20T05:30:59.537Z,100444.25
2023-05-20T05:33:27.246Z,100441.22
2023-05-20T05:35:59.479Z,100435.84
2023-05-20T05:38:27.600Z,100443.41
2023-05-20T05:40:55.588Z,100442.34
2023-05-20T05:43:23.448Z,100445.28
2023-05-20T05:45:51.705Z,100439.53
2023-05-20T05:48:19.173Z,100438.16
2023-05-20T05:50:47.360Z,100451.41
2023-05-20T05:53:17.062Z,100453.00
2023-05-20T05:55:48.106Z,100451.38
2023-05-20T05:58:16.657Z,100447.47
2023-05-20T06:00:43.983Z,100447.94
2023-05-20T06:03:11.893Z,100452.09
2023-05-20T06:05:40.244Z,100437.34
2023-05-20T06:08:08.504Z,100438.75
2023-05-20T06:10:37.386Z,100443.91
2023-05-20T06:13:05.249Z,100432.59
2023-05-20T06:15:33.783Z,100430.94
2023-05-20T06:18:03.266Z,100444.50
2023-05-20T06:20:32.214Z,100445.75
2023-05-20T06:23:01.260Z,100438.34
2023-05-20T06:25:37.792Z,100433.94
2023-05-20T06:28:05.417Z,100439.38
2023-05-20T06:30:33.444Z,100447.56
2023-05-20T06:33:01.766Z,100437.06
2023-05-20T06:35:29.467Z,100439.56
2023-05-20T06:37:57.158Z,100438.78
2023-05-20T06:40:24.746Z,100434.56
2023-05-20T06:42:52.477Z,100430.16
2023-05-20T06:45:28.208Z,100429.38
2023-05-20T06:47:57.738Z,100426.97
2023-05-20T06:50:28.485Z,100428.09
2023-05-20T06:52:56.409Z,100424.34
2023-05-20T06:55:24.094Z,100422.50
2023-05-20T06:57:51.863Z,100431.59
2023-05-20T07:00:20.412Z,100428.50
2023-05-20T07:02:47.890Z,100427.47
2023-05-20T07:05:15.743Z,100428.44
2023-05-20T07:07:43.140Z,100429.72
2023-05-20T07:10:10.716Z,100417.75
2023-05-20T07:12:38.181Z,100421.81
2023-05-20T07:15:06.426Z,100425.34
2023-05-20T07:17:34.994Z,100429.31
2023-05-20T07:20:03.088Z,100427.91
2023-05-20T07:34:02.770Z,100430.25
2023-05-20T07:36:30.710Z,100441.09
2023-05-20T07:39:04.368Z,100433.94
2023-05-20T07:41:35.903Z,100436.66
2023-05-20T07:44:05.350Z,100438.13
2023-05-20T07:46:35.021Z,100440.44
2023-05-20T07:49:03.765Z,100445.84
2023-05-20T07:51:31.997Z,100444.56
2023-05-20T07:53:59.554Z,100445.41
2023-05-20T07:56:27.544Z,100439.97
2023-05-20T07:58:58.441Z,100439.06
2023-05-20T08:01:29.229Z,100430.41
2023-05-20T08:03:56.805Z,100434.91
2023-05-20T08:06:27.950Z,100422.88
2023-05-20T08:08:57.025Z,100432.91
2023-05-20T08:11:29.780Z,100434.53
2023-05-20T08:13:57.696Z,100432.28
2023-05-20T08:16:27.446Z,100429.69
2023-05-20T08:18:55.300Z,100418.53
2023-05-20T08:21:23.054Z,100418.00
2023-05-20T08:23:51.157Z,100424.78
2023-05-20T08:26:18.779Z,100415.22
2023-05-20T08:28:47.080Z,100417.69
2023-05-20T08:31:18.315Z,100426.25
2023-05-20T08:33:46.041Z,100420.63
2023-05-20T08:36:13.301Z,100422.84
2023-05-20T08:38:40.420Z,100424.06
2023-05-20T08:41:07.995Z,100429.16
2023-05-20T08:43:38.223Z,100412.44
2023-05-20T08:46:07.211Z,100426.94
2023-05-20T08:48:36.485Z,100425.91
2023-05-20T08:51:05.169Z,100426.75
2023-05-20T08:53:32.614Z,100423.22
2023-05-20T08:56:03.710Z,100412.66
2023-05-20T08:58:33.049Z,100408.38
2023-05-20T09:01:00.710Z,100417.25
2023-05-20T09:03:29.093Z,100413.84
2023-05-20T09:06:06.220Z,100411.28
2023-05-20T09:08:34.636Z,100399.28
2023-05-20T09:11:02.176Z,100408.31
2023-05-20T09:13:33.133Z,100406.44
2023-05-20T09:16:04.721Z,100412.34
2023-05-20T09:18:32.553Z,100406.28
2023-05-20T09:21:07.424Z,100411.75
2023-05-20T09:23:38.601Z,100402.59
2023-05-20T09:26:06.739Z,100404.75
2023-05-20T09:28:36.717Z,100404.22
2023-05-20T09:31:07.087Z,100394.94
2023-05-20T09:33:37.634Z,100396.78
2023-05-20T09:36:08.303Z,100396.63
2023-05-20T09:38:40.068Z,100408.13
2023-05-20T09:41:16.092Z,100404.03
2023-05-20T09:43:45.870Z,100392.41
2023-05-20T09:46:14.519Z,100401.56
2023-05-20T09:48:41.983Z,100403.94
2023-05-20T09:51:10.344Z,100392.38
2023-05-20T09:53:38.007Z,100395.25
2023-05-20T09:56:06.201Z,100387.94
2023-05-20T09:58:36.385Z,100398.09
2023-05-20T10:01:04.238Z,100392.03
2023-05-20T10:03:33.694Z,100392.38
2023-05-20T10:06:10.598Z,100389.81
2023-05-20T10:08:47.264Z,100389.31
2023-05-20T10:11:40.778Z,100381.72
2023-05-20T10:14:49.748Z,100390.06
2023-05-20T10:17:29.081Z,100389.81
2023-05-20T10:20:03.956Z,100375.44
2023-05-20T10:22:33.664Z,100376.72
2023-05-20T10:25:09.184Z,100379.47
2023-05-20T10:27:49.160Z,100375.34
2023-05-20T10:30:18.307Z,100370.91
2023-05-20T10:32:57.810Z,100371.53
2023-05-20T10:35:26.795Z,100363.56
2023-05-20T10:37:55.437Z,100375.72
2023-05-20T10:40:23.587Z,100373.38
2023-05-20T10:42:50.983Z,100368.41
2023-05-20T10:45:29.076Z,100365.03
2023-05-20T10:47:57.960Z,100362.53
2023-05-20T10:50:36.554Z,100360.13
2023-05-20T10:53:18.465Z,100361.91
2023-05-20T10:55:57.979Z,100356.63
2023-05-20T10:58:25.907Z,100360.16
2023-05-20T11:00:56.432Z,100345.38
2023-05-20T11:03:25.619Z,100364.66
2023-05-20T11:05:53.104Z,100366.06
2023-05-20T11:08:29.067Z,100362.56
2023-05-20T11:10:58.523Z,100369.91
2023-05-20T11:13:27.381Z,100367.66
2023-05-20T11:15:56.177Z,100359.25
2023-05-20T11:18:23.991Z,100363.00
2023-05-20T11:20:51.528Z,100363.16
2023-05-20T11:23:19.663Z,100355.97
2023-05-20T11:25:47.607Z,100352.63
2023-05-20T11:28:18.012Z,100365.47
2023-05-20T11:30:46.006Z,100360.69
2023-05-20T11:33:14.606Z,100357.69
2023-05-20T11:35:46.376Z,100356.38
2023-05-20T11:38:14.157Z,100353.63
2023-05-20T11:40:53.068Z,100352.81
2023-05-20T11:43:21.727Z,100344.31
2023-05-20T11:45:54.734Z,100345.22
2023-05-20T11:48:22.326Z,100331.81
2023-05-20T11:50:49.894Z,100344.84
2023-05-20T11:53:19.722Z,100344.63
2023-05-20T11:55:53.300Z,100332.09
2023-05-20T11:58:31.319Z,100329.97
2023-05-20T12:01:09.580Z,100339.09
2023-05-20T12:03:42.787Z,100344.91
2023-05-20T12:06:13.752Z,100332.34
2023-05-20T12:08:41.630Z,100326.28
2023-05-20T12:11:09.209Z,100323.66
2023-05-20T12:13:36.975Z,100322.19
2023-05-20T12:16:06.201Z,100318.06
2023-05-20T12:18:34.198Z,100325.03
2023-05-20T12:21:02.030Z,100317.00
2023-05-20T12:23:31.299Z,100322.28
2023-05-20T12:25:58.477Z,100319.09
2023-05-20T12:28:26.121Z,100325.22
2023-05-20T12:30:53.372Z,100325.22
2023-05-20T12:33:21.081Z,100324.34
2023-05-20T12:35:48.931Z,100329.00
2023-05-20T12:38:16.626Z,100325.13
2023-05-20T12:40:44.573Z,100314.50
2023-05-20T12:43:11.816Z,100305.88
2023-05-20T12:45:39.701Z,100309.97
2023-05-20T12:48:10.180Z,100320.34
2023-05-20T12:50:37.861Z,100309.47
2023-05-20T12:53:05.752Z,100317.16
2023-05-20T12:55:33.324Z,100305.59
2023-05-20T12:58:00.852Z,100304.84
2023-05-20T13:00:28.622Z,100302.84
2023-05-20T13:02:56.157Z,100298.50
2023-05-20T13:05:23.496Z,100307.84
2023-05-20T13:07:51.081Z,100294.06
2023-05-20T13:10:20.026Z,100297.94
2023-05-20T13:12:47.997Z,100300.38
2023-05-20T13:15:15.937Z,100293.81
2023-05-20T13:17:43.561Z,100306.56
2023-05-20T13:20:12.180Z,100301.25
2023-05-20T13:22:39.814Z,100292.25
2023-05-20T13:25:08.508Z,100294.28
2023-05-20T13:27:40.325Z,100286.78
2023-05-20T13:30:08.797Z,100285.03
2023-05-20T13:32:36.794Z,100280.81
2023-05-20T13:35:04.743Z,100289.28
2023-05-20T13:37:32.089Z,100289.66
2023-05-20T13:39:59.672Z,100273.06
2023-05-20T13:42:27.549Z,100283.94
2023-05-20T13:44:54.903Z,100281.63
2023-05-20T13:47:25.174Z,100287.94
2023-05-20T13:49:53.165Z,100283.28
2023-05-20T13:52:21.253Z,100286.09
2023-05-20T13:54:49.022Z,100284.72
2023-05-20T13:57:18.004Z,100282.69
2023-05-20T13:59:45.554Z,100284.03
2023-05-20T14:02:13.041Z,100287.00
2023-05-20T14:04:41.500Z,100276.13
2023-05-20T14:07:09.953Z,100281.66
2023-05-20T14:09:38.248Z,100284.91
2023-05-20T14:12:06.589Z,100291.91
2023-05-20T14:14:34.027Z,100280.22
2023-05-20T14:17:01.328Z,100283.28
2023-05-20T14:19:29.369Z,100280.50
2023-05-20T14:21:56.785Z,100284.59
2023-05-20T14:24:24.276Z,100285.69
2023-05-20T14:26:51.793Z,100281.75
2023-05-20T14:29:19.424Z,100278.88
2023-05-20T14:31:47.104Z,100283.69
2023-05-20T14:34:14.422Z,100278.88
2023-05-20T14:36:41.959Z,100280.22
2023-05-20T14:39:10.161Z,100280.25
2023-05-20T14:41:37.642Z,100277.16
2023-05-20T14:44:05.240Z,100271.41
2023-05-20T14:46:33.043Z,100265.09
2023-05-20T14:49:00.663Z,100268.41
2023-05-20T14:51:27.870Z,100255.66
2023-05-20T14:53:55.040Z,100265.00
2023-05-20T14:56:23.593Z,100265.69
2023-05-20T14:58:51.214Z,100267.91
2023-05-20T15:01:18.650Z,100260.75
2023-05-20T15:03:46.483Z,100263.31
2023-05-20T15:06:14.155Z,100261.78
2023-05-20T15:08:42.231Z,100253.53
2023-05-20T15:11:09.830Z,100252.84
2023-05-20T15:13:40.206Z,100258.25
2023-05-20T15:16:08.331Z,100257.19
2023-05-20T15:18:35.856Z,100248.22
2023-05-20T15:21:03.512Z,100247.81
2023-05-20T15:23:31.171Z,100258.75
2023-05-20T15:25:58.819Z,100245.13
2023-05-20T15:28:26.647Z,100250.22
2023-05-20T15:30:57.071Z,100251.63
2023-05-20T15:33:24.767Z,100250.53
2023-05-20T15:35:52.762Z,100246.34
2023-05-20T15:38:20.202Z,100243.56
2023-05-20T15:40:50.595Z,100246.22
2023-05-20T15:43:18.875Z,100241.91
2023-05-20T15:45:50.080Z,100239.72
2023-05-20T15:48:17.857Z,100241.09
2023-05-20T15:50:45.348Z,100242.00
2023-05-20T15:53:16.228Z,100241.50
2023-05-20T15:55:44.872Z,100247.72
2023-05-20T15:58:12.508Z,100244.66
2023-05-20T16:00:40.226Z,100240.09
2023-05-20T16:03:08.702Z,100240.94
2023-05-20T16:05:36.806Z,100245.63
2023-05-20T16:08:04.408Z,100238.41
2023-05-20T16:10:35.196Z,100247.13
2023-05-20T16:13:03.341Z,100241.75
2023-05-20T16:15:36.172Z,100239.78
2023-05-20T16:18:04.224Z,100242.88
2023-05-20T16:20:31.903Z,100243.97
2023-05-20T16:22:59.565Z,100246.69
2023-05-20T16:25:26.894Z,100245.19
2023-05-20T16:27:54.267Z,100248.25
2023-05-20T16:30:21.884Z,100245.56
2023-05-20T16:32:49.641Z,100256.47
2023-05-20T16:35:17.168Z,100252.34
2023-05-20T16:37:44.942Z,100244.63
2023-05-20T16:40:13.071Z,100255.03
2023-05-20T16:42:40.684Z,100256.09
2023-05-20T16:45:08.652Z,100249.38
2023-05-20T16:47:37.125Z,100251.16
2023-05-20T16:50:04.990Z,100249.94
2023-05-20T16:52:35.578Z,100258.34
2023-05-20T16:55:05.033Z,100252.22
2023-05-20T16:57:32.959Z,100253.66
2023-05-20T17:00:00.711Z,100259.50
2023-05-20T17:02:28.157Z,100260.97
2023-05-20T17:04:55.744Z,100257.50
2023-05-20T17:07:23.226Z,100258.47
2023-05-20T17:09:50.646Z,100260.00
2023-05-20T17:12:20.132Z,100254.06
2023-05-20T17:14:47.574Z,100264.50
2023-05-20T17:17:15.235Z,100260.03
2023-05-20T17:19:42.897Z,100256.88
2023-05-20T17:22:10.428Z,100265.59
2023-05-20T17:24:37.740Z,100261.34
2023-05-20T17:27:06.256Z,100264.16
2023-05-20T17:29:33.874Z,100271.00
2023-05-20T17:32:01.598Z,100261.78
2023-05-20T17:34:30.086Z,100256.63
2023-05-20T17:36:57.806Z,100254.88
2023-05-20T17:39:25.576Z,100264.66
2023-05-20T17:41:53.013Z,100261.63
2023-05-20T17:44:20.527Z,100259.25
2023-05-20T17:46:48.913Z,100267.34
2023-05-20T17:49:17.046Z,100267.38
2023-05-20T17:51:44.506Z,100266.28
2023-05-20T17:54:12.112Z,100260.53
2023-05-20T17:56:39.645Z,100268.31
2023-05-20T17:59:07.124Z,100267.97
2023-05-20T18:01:36.404Z,100270.56
2023-05-20T18:04:06.388Z,100283.59
2023-05-20T18:06:36.409Z,100280.53
2023-05-20T18:09:05.150Z,100284.78
2023-05-20T18:11:34.052Z,100283.78
2023-05-20T18:14:02.861Z,100285.25
2023-05-20T18:16:30.974Z,100297.50
2023-05-20T18:18:58.713Z,100302.66
2023-05-20T18:21:26.653Z,100297.97
2023-05-20T18:23:54.311Z,100297.84
2023-05-20T18:26:21.873Z,100295.88
2023-05-20T18:28:50.235Z,100303.78
2023-05-20T18:31:17.680Z,100315.16
2023-05-20T18:33:45.088Z,100308.72
2023-05-20T18:36:12.723Z,100307.63
2023-05-20T18:38:41.751Z,100312.75
2023-05-20T18:41:10.438Z,100316.88
2023-05-20T18:43:38.099Z,100310.25
2023-05-20T18:46:06.851Z,100312.38
2023-05-20T18:48:34.481Z,100306.38
2023-05-20T18:51:01.846Z,100310.34
2023-05-20T18:53:29.279Z,100310.75
2023-05-20T18:56:01.849Z,100312.00
2023-05-20T18:58:30.372Z,100312.44
2023-05-20T19:00:57.733Z,100315.28
2023-05-20T19:03:26.701Z,100322.41
2023-05-20T19:05:54.108Z,100313.63
2023-05-20T19:08:23.258Z,100315.28
2023-05-20T19:10:51.250Z,100316.97
2023-05-20T19:13:21.828Z,100319.31
2023-05-20T19:15:49.456Z,100327.41
2023-05-20T19:18:17.031Z,100327.16
2023-05-20T19:20:44.361Z,100327.25
2023-05-20T19:23:12.066Z,100330.06
2023-05-20T19:25:39.789Z,100332.91
2023-05-20T19:28:07.034Z,100333.94
2023-05-20T19:30:35.105Z,100340.28
2023-05-20T19:33:05.499Z,100337.09
2023-05-20T19:35:34.997Z,100328.56
2023-05-20T19:38:05.131Z,100326.44
2023-05-20T19:40:33.652Z,100340.00
2023-05-20T19:43:04.550Z,100336.81
2023-05-20T19:45:32.402Z,100337.13
2023-05-20T19:47:59.936Z,100340.00
2023-05-20T19:50:28.041Z,100342.09
2023-05-20T19:52:55.435Z,100342.25
2023-05-20T19:55:23.070Z,100346.03
2023-05-20T19:57:53.985Z,100346.13
2023-05-20T20:00:21.994Z,100340.31
2023-05-20T20:02:50.558Z,100343.97
2023-05-20T20:05:18.630Z,100340.00
2023-05-20T20:07:48.388Z,100340.44
2023-05-20T20:10:16.045Z,100342.63
2023-05-20T20:12:43.631Z,100335.22
2023-05-20T20:15:11.598Z,100344.44
2023-05-20T20:17:46.000Z,100338.75
2023-05-20T20:20:14.501Z,100340.94
2023-05-20T20:22:42.811Z,100339.50
2023-05-20T20:25:14.130Z,100338.13
2023-05-20T20:27:44.771Z,100341.88
2023-05-20T20:30:14.172Z,100333.19
2023-05-20T20:32:42.121Z,100335.84
2023-05-20T20:35:11.389Z,100326.13
2023-05-20T20:37:39.573Z,100331.72
2023-05-20T20:40:13.725Z,100332.63
2023-05-20T20:42:45.410Z,100334.44
2023-05-20T20:45:12.847Z,100335.25
2023-05-20T20:47:41.471Z,100335.16
2023-05-20T20:50:09.686Z,100332.38
2023-05-20T20:52:38.785Z,100335.97
2023-05-20T20:55:07.357Z,100335.16
2023-05-20T20:57:35.528Z,100332.63
2023-05-20T21:00:14.381Z,100343.22
2023-05-20T21:02:42.226Z,100335.34
2023-05-20T21:05:09.907Z,100344.41
2023-05-20T21:07:42.878Z,100341.03
2023-05-20T21:10:10.710Z,100339.72
2023-05-20T21:12:38.202Z,100331.94
2023-05-20T21:15:06.384Z,100334.75
2023-05-20T21:17:33.744Z,100329.41
2023-05-20T21:20:01.234Z,100339.13
2023-05-20T21:22:28.706Z,100335.50
2023-05-20T21:24:56.162Z,100341.59
2023-05-20T21:27:23.708Z,100347.63
2023-05-20T21:29:51.458Z,100342.03
2023-05-20T21:32:19.112Z,100355.25
2023-05-20T21:34:47.045Z,100345.47
2023-05-20T21:37:14.383Z,100343.78
2023-05-20T21:39:42.464Z,100340.28
2023-05-20T21:42:10.057Z,100347.56
2023-05-20T21:44:37.726Z,100353.97
2023-05-20T21:47:05.051Z,100351.38
2023-05-20T21:49:33.253Z,100342.44
2023-05-20T21:52:00.623Z,100346.97
2023-05-20T21:54:27.617Z,100351.44
2023-05-20T21:56:54.834Z,100345.25
2023-05-20T21:59:22.422Z,100345.31
2023-05-20T22:01:51.169Z,100345.44
2023-05-20T22:04:19.880Z,100339.13
2023-05-20T22:06:47.409Z,100342.56
2023-05-20T22:09:14.979Z,100348.03
2023-05-20T22:11:45.759Z,100343.66
2023-05-20T22:14:16.332Z,100334.59
2023-05-20T22:16:48.766Z,100339.72
2023-05-20T22:19:16.928Z,100333.47
2023-05-20T22:24:15.274Z,100339.13
2023-05-20T22:26:42.735Z,100334.59
2023-05-20T22:29:09.959Z,100344.44
2023-05-20T22:31:38.159Z,100337.56
2023-05-20T22:34:05.740Z,100342.34
2023-05-20T22:36:36.668Z,100337.16
2023-05-20T22:39:04.951Z,100339.09
2023-05-20T22:41:32.448Z,100335.56
2023-05-20T22:43:59.784Z,100330.53
2023-05-20T22:46:27.147Z,100334.03
2023-05-20T22:48:55.632Z,100327.88
2023-05-20T22:51:24.750Z,100331.38
2023-05-20T22:53:52.304Z,100345.88
2023-05-20T22:56:20.173Z,100342.50
2023-05-20T22:58:47.568Z,100334.53
2023-05-20T23:01:16.983Z,100328.41
2023-05-20T23:03:51.830Z,100325.75
2023-05-20T23:06:19.610Z,100326.69
2023-05-20T23:08:47.184Z,100326.69
2023-05-20T23:11:14.472Z,100323.38
2023-05-20T23:13:42.031Z,100321.56
2023-05-20T23:16:09.673Z,100325.16
2023-05-20T23:18:37.259Z,100314.72
2023-05-20T23:21:04.732Z,100324.63
2023-05-20T23:23:32.340Z,100326.56
2023-05-20T23:26:00.361Z,100323.44
2023-05-20T23:28:28.129Z,100321.16
2023-05-20T23:30:55.333Z,100327.31
2023-05-20T23:33:25.761Z,100319.28
2023-05-20T23:35:53.504Z,100321.34
2023-05-20T23:38:21.351Z,100324.13
2023-05-20T23:40:49.735Z,100318.28
2023-05-20T23:43:17.305Z,100319.25
2023-05-20T23:45:44.498Z,100322.97
2023-05-20T23:48:13.775Z,100313.34
2023-05-20T23:50:41.198Z,100320.31
2023-05-20T23:53:08.511Z,100312.72
2023-05-20T23:55:36.149Z,100313.97
2023-05-20T23:58:04.522Z,100320.28
